sensor_id;sensor_type;location;lat;lon;timestamp;pressure;altitude;pressure_sealevel;temperature;humidity
56928;BME280;60850;52.502;13.426;2023-01-30T00:01:29;100930.53;;;2.99;100.00
56928;BME280;60850;52.502;13.426;2023-01-30T00:03:57;100925.25;;;3.01;100.00
56928;BME280;60850;52.502;13.426;2023-01-30T00:06:24;100913.91;;;3.07;100.00
56928;BME280;60850;52.502;13.426;2023-01-30T00:08:51;100916.56;;;3.11;100.00
56928;BME280;60850;52.502;13.426;2023-01-30T00:11:19;100886.72;;;3.12;100.00
56928;BME280;60850;52.502;13.426;2023-01-30T00:13:47;100884.13;;;3.18;100.00
56928;BME280;60850;52.502;13.426;2023-01-30T00:16:16;100873.56;;;3.15;100.00
56928;BME280;60850;52.502;13.426;2023-01-30T00:18:44;100860.38;;;3.14;100.00
56928;BME280;60850;52.502;13.426;2023-01-30T00:21:13;100860.41;;;3.18;100.00
56928;BME280;60850;52.502;13.426;2023-01-30T00:23:40;100841.06;;;3.16;100.00
56928;BME280;60850;52.502;13.426;2023-01-30T00:26:07;100848.09;;;3.14;100.00
56928;BME280;60850;52.502;13.426;2023-01-30T00:28:35;100844.56;;;3.12;100.00
56928;BME280;60850;52.502;13.426;2023-01-30T00:31:02;100836.63;;;3.09;100.00
56928;BME280;60850;52.502;13.426;2023-01-30T00:33:31;100827.91;;;3.10;100.00
56928;BME280;60850;52.502;13.426;2023-01-30T00:36:00;100820.00;;;3.13;100.00
56928;BME280;60850;52.502;13.426;2023-01-30T00:38:28;100796.28;;;3.10;100.00
56928;BME280;60850;52.502;13.426;2023-01-30T00:40:54;100787.50;;;3.13;100.00
56928;BME280;60850;52.502;13.426;2023-01-30T00:43:21;100784.88;;;3.16;100.00
56928;BME280;60850;52.502;13.426;2023-01-30T00:46:08;100767.34;;;3.19;100.00
56928;BME280;60850;52.502;13.426;2023-01-30T00:48:55;100762.03;;;3.16;100.00
56928;BME280;60850;52.502;13.426;2023-01-30T00:51:21;100740.97;;;3.15;100.00
56928;BME280;60850;52.502;13.426;2023-01-30T00:53:48;100736.59;;;3.12;100.00
56928;BME280;60850;52.502;13.426;2023-01-30T00:56:15;100739.19;;;3.06;100.00
56928;BME280;60850;52.502;13.426;2023-01-30T00:58:42;100732.13;;;2.97;100.00
56928;BME280;60850;52.502;13.426;2023-01-30T01:01:09;100716.31;;;2.96;100.00
56928;BME280;60850;52.502;13.426;2023-01-30T01:03:36;100726.84;;;2.93;100.00
56928;BME280;60850;52.502;13.426;2023-01-30T01:06:04;100718.94;;;2.94;100.00
56928;BME280;60850;52.502;13.426;2023-01-30T01:08:31;100725.97;;;2.94;100.00
56928;BME280;60850;52.502;13.426;2023-01-30T01:10:58;100715.44;;;2.89;100.00
56928;BME280;60850;52.502;13.426;2023-01-30T01:13:25;100723.28;;;2.88;100.00
56928;BME280;60850;52.502;13.426;2023-01-30T01:15:52;100717.16;;;2.84;100.00
56928;BME280;60850;52.502;13.426;2023-01-30T01:18:19;100702.25;;;2.86;100.00
56928;BME280;60850;52.502;13.426;2023-01-30T01:20:46;100684.66;;;2.81;100.00
56928;BME280;60850;52.502;13.426;2023-01-30T01:23:14;100643.41;;;2.81;100.00
56928;BME280;60850;52.502;13.426;2023-01-30T01:25:41;100639.06;;;2.85;100.00
56928;BME280;60850;52.502;13.426;2023-01-30T01:28:08;100651.34;;;2.83;100.00
56928;BME280;60850;52.502;13.426;2023-01-30T01:30:35;100645.16;;;2.79;100.00
56928;BME280;60850;52.502;13.426;2023-01-30T01:33:03;100643.44;;;2.84;100.00
56928;BME280;60850;52.502;13.426;2023-01-30T01:35:30;100642.56;;;2.88;100.00
56928;BME280;60850;52.502;13.426;2023-01-30T01:37:57;100634.69;;;2.94;100.00
56928;BME280;60850;52.502;13.426;2023-01-30T01:40:25;100623.28;;;2.91;100.00
56928;BME280;60850;52.502;13.426;2023-01-30T01:43:16;100648.72;;;2.90;100.00
56928;BME280;60850;52.502;13.426;2023-01-30T01:45:43;100655.72;;;2.88;100.00
56928;BME280;60850;52.502;13.426;2023-01-30T01:48:14;100667.09;;;2.80;100.00
56928;BME280;60850;52.502;13.426;2023-01-30T01:50:48;100655.72;;;2.82;100.00
56928;BME280;60850;52.502;13.426;2023-01-30T01:53:19;100659.22;;;2.78;100.00
56928;BME280;60850;52.502;13.426;2023-01-30T01:55:50;100647.81;;;2.81;100.00
56928;BME280;60850;52.502;13.426;2023-01-30T01:58:22;100632.91;;;2.86;100.00
56928;BME280;60850;52.502;13.426;2023-01-30T02:00:51;100635.56;;;2.92;100.00
56928;BME280;60850;52.502;13.426;2023-01-30T02:03:21;100609.22;;;2.90;100.00
56928;BME280;60850;52.502;13.426;2023-01-30T02:05:51;100606.63;;;2.96;100.00
56928;BME280;60850;52.502;13.426;2023-01-30T02:08:21;100596.09;;;3.06;100.00
56928;BME280;60850;52.502;13.426;2023-01-30T02:10:57;100564.50;;;3.04;100.00
56928;BME280;60850;52.502;13.426;2023-01-30T02:13:25;100569.72;;;2.95;100.00
56928;BME280;60850;52.502;13.426;2023-01-30T02:15:54;100568.88;;;2.90;100.00
56928;BME280;60850;52.502;13.426;2023-01-30T02:18:22;100563.56;;;2.81;100.00
56928;BME280;60850;52.502;13.426;2023-01-30T02:21:02;100557.41;;;2.80;100.00
56928;BME280;60850;52.502;13.426;2023-01-30T02:26:42;100524.06;;;2.74;100.00
56928;BME280;60850;52.502;13.426;2023-01-30T02:32:13;100509.16;;;2.70;100.00
56928;BME280;60850;52.502;13.426;2023-01-30T02:37:26;100517.03;;;2.72;100.00
56928;BME280;60850;52.502;13.426;2023-01-30T02:40:09;100517.06;;;2.75;100.00
56928;BME280;60850;52.502;13.426;2023-01-30T02:42:42;100514.44;;;2.77;100.00
56928;BME280;60850;52.502;13.426;2023-01-30T02:45:15;100503.00;;;2.73;100.00
56928;BME280;60850;52.502;13.426;2023-01-30T02:47:53;100501.28;;;2.77;100.00
56928;BME280;60850;52.502;13.426;2023-01-30T02:50:26;100497.75;;;2.78;100.00
56928;BME280;60850;52.502;13.426;2023-01-30T02:52:55;100485.47;;;2.77;100.00
56928;BME280;60850;52.502;13.426;2023-01-30T02:55:25;100479.31;;;2.81;100.00
56928;BME280;60850;52.502;13.426;2023-01-30T02:57:52;100472.28;;;2.67;100.00
56928;BME280;60850;52.502;13.426;2023-01-30T03:00:23;100469.69;;;2.69;100.00
56928;BME280;60850;52.502;13.426;2023-01-30T03:03:11;100454.75;;;2.63;100.00
56928;BME280;60850;52.502;13.426;2023-01-30T03:05:52;100444.22;;;2.65;100.00
56928;BME280;60850;52.502;13.426;2023-01-30T03:08:30;100438.97;;;2.63;100.00
56928;BME280;60850;52.502;13.426;2023-01-30T03:11:02;100441.59;;;2.63;100.00
56928;BME280;60850;52.502;13.426;2023-01-30T03:13:40;100444.22;;;2.65;100.00
56928;BME280;60850;52.502;13.426;2023-01-30T03:16:11;100435.44;;;2.67;100.00
56928;BME280;60850;52.502;13.426;2023-01-30T03:18:42;100427.53;;;2.67;100.00
56928;BME280;60850;52.502;13.426;2023-01-30T03:21:10;100417.91;;;2.66;100.00
56928;BME280;60850;52.502;13.426;2023-01-30T03:23:37;100419.66;;;2.73;100.00
56928;BME280;60850;52.502;13.426;2023-01-30T03:26:07;100410.00;;;2.72;100.00
56928;BME280;60850;52.502;13.426;2023-01-30T03:28:38;100404.75;;;2.75;100.00
56928;BME280;60850;52.502;13.426;2023-01-30T03:31:05;100416.16;;;2.82;100.00
56928;BME280;60850;52.502;13.426;2023-01-30T03:33:33;100402.97;;;2.87;100.00
56928;BME280;60850;52.502;13.426;2023-01-30T03:36:01;100398.56;;;2.89;100.00
56928;BME280;60850;52.502;13.426;2023-01-30T03:38:28;100397.69;;;2.88;100.00
56928;BME280;60850;52.502;13.426;2023-01-30T03:40:56;100400.34;;;2.81;100.00
56928;BME280;60850;52.502;13.426;2023-01-30T03:43:22;100398.59;;;2.80;100.00
56928;BME280;60850;52.502;13.426;2023-01-30T03:45:49;100400.34;;;2.85;100.00
56928;BME280;60850;52.502;13.426;2023-01-30T03:48:16;100382.78;;;2.87;100.00
56928;BME280;60850;52.502;13.426;2023-01-30T03:50:43;100381.03;;;2.94;100.00
56928;BME280;60850;52.502;13.426;2023-01-30T03:53:11;100370.50;;;2.92;100.00
56928;BME280;60850;52.502;13.426;2023-01-30T03:55:38;100386.28;;;2.95;100.00
56928;BME280;60850;52.502;13.426;2023-01-30T03:58:05;100359.97;;;2.95;100.00
56928;BME280;60850;52.502;13.426;2023-01-30T04:00:32;100362.59;;;2.92;100.00
56928;BME280;60850;52.502;13.426;2023-01-30T04:02:58;100359.97;;;2.94;100.00
56928;BME280;60850;52.502;13.426;2023-01-30T04:05:26;100348.56;;;2.96;100.00
56928;BME280;60850;52.502;13.426;2023-01-30T04:07:55;100344.19;;;2.97;100.00
56928;BME280;60850;52.502;13.426;2023-01-30T04:10:24;100324.84;;;2.95;100.00
56928;BME280;60850;52.502;13.426;2023-01-30T04:12:50;100336.28;;;2.97;100.00
56928;BME280;60850;52.502;13.426;2023-01-30T04:15:17;100333.63;;;2.98;100.00
56928;BME280;60850;52.502;13.426;2023-01-30T04:17:44;100316.06;;;3.05;100.00
56928;BME280;60850;52.502;13.426;2023-01-30T04:20:12;100316.94;;;3.02;100.00
56928;BME280;60850;52.502;13.426;2023-01-30T04:22:39;100320.47;;;3.05;100.00
56928;BME280;60850;52.502;13.426;2023-01-30T04:25:06;100309.03;;;3.09;100.00
56928;BME280;60850;52.502;13.426;2023-01-30T04:27:34;100308.13;;;3.14;100.00
56928;BME280;60850;52.502;13.426;2023-01-30T04:30:02;100303.78;;;3.10;100.00
56928;BME280;60850;52.502;13.426;2023-01-30T04:32:29;100306.41;;;3.10;100.00
56928;BME280;60850;52.502;13.426;2023-01-30T04:34:56;100299.34;;;3.15;100.00
56928;BME280;60850;52.502;13.426;2023-01-30T04:37:22;100302.84;;;3.16;100.00
56928;BME280;60850;52.502;13.426;2023-01-30T04:39:49;100294.91;;;3.23;100.00
56928;BME280;60850;52.502;13.426;2023-01-30T04:42:16;100296.66;;;3.27;100.00
56928;BME280;60850;52.502;13.426;2023-01-30T04:44:44;100289.66;;;3.23;100.00
56928;BME280;60850;52.502;13.426;2023-01-30T04:47:11;100294.06;;;3.26;100.00
56928;BME280;60850;52.502;13.426;2023-01-30T04:49:38;100275.56;;;3.34;100.00
56928;BME280;60850;52.502;13.426;2023-01-30T04:52:05;100272.06;;;3.28;100.00
56928;BME280;60850;52.502;13.426;2023-01-30T04:54:32;100267.69;;;3.32;100.00
56928;BME280;60850;52.502;13.426;2023-01-30T04:56:59;100271.19;;;3.34;100.00
56928;BME280;60850;52.502;13.426;2023-01-30T04:59:26;100264.13;;;3.38;100.00
56928;BME280;60850;52.502;13.426;2023-01-30T05:01:54;100259.75;;;3.40;100.00
56928;BME280;60850;52.502;13.426;2023-01-30T05:04:21;100248.28;;;3.42;100.00
56928;BME280;60850;52.502;13.426;2023-01-30T05:06:48;100262.34;;;3.47;100.00
56928;BME280;60850;52.502;13.426;2023-01-30T05:09:15;100239.47;;;3.52;100.00
56928;BME280;60850;52.502;13.426;2023-01-30T05:11:42;100255.28;;;3.51;100.00
56928;BME280;60850;52.502;13.426;2023-01-30T05:14:09;100244.75;;;3.48;100.00
56928;BME280;60850;52.502;13.426;2023-01-30T05:16:35;100245.63;;;3.53;100.00
56928;BME280;60850;52.502;13.426;2023-01-30T05:19:03;100243.84;;;3.52;100.00
56928;BME280;60850;52.502;13.426;2023-01-30T05:21:30;100236.84;;;3.45;100.00
56928;BME280;60850;52.502;13.426;2023-01-30T05:23:57;100235.09;;;3.44;100.00
56928;BME280;60850;52.502;13.426;2023-01-30T05:26:24;100232.53;;;3.39;100.00
56928;BME280;60850;52.502;13.426;2023-01-30T05:28:52;100233.34;;;3.43;100.00
56928;BME280;60850;52.502;13.426;2023-01-30T05:31:19;100226.34;;;3.46;100.00
56928;BME280;60850;52.502;13.426;2023-01-30T05:33:47;100219.28;;;3.44;100.00
56928;BME280;60850;52.502;13.426;2023-01-30T05:36:18;100218.44;;;3.46;100.00
56928;BME280;60850;52.502;13.426;2023-01-30T05:38:45;100214.06;;;3.41;100.00
56928;BME280;60850;52.502;13.426;2023-01-30T05:41:14;100214.94;;;3.41;100.00
56928;BME280;60850;52.502;13.426;2023-01-30T05:43:41;100206.13;;;3.42;100.00
56928;BME280;60850;52.502;13.426;2023-01-30T05:46:10;100199.09;;;3.47;100.00
56928;BME280;60850;52.502;13.426;2023-01-30T05:48:37;100191.19;;;3.47;100.00
56928;BME280;60850;52.502;13.426;2023-01-30T05:51:04;100202.63;;;3.43;100.00
56928;BME280;60850;52.502;13.426;2023-01-30T05:53:33;100179.81;;;3.39;100.00
56928;BME280;60850;52.502;13.426;2023-01-30T05:56:02;100180.66;;;3.43;100.00
56928;BME280;60850;52.502;13.426;2023-01-30T05:58:30;100183.31;;;3.41;100.00
56928;BME280;60850;52.502;13.426;2023-01-30T06:01:01;100175.38;;;3.43;100.00
56928;BME280;60850;52.502;13.426;2023-01-30T06:03:29;100171.91;;;3.38;100.00
56928;BME280;60850;52.502;13.426;2023-01-30T06:05:56;100170.16;;;3.37;100.00
56928;BME280;60850;52.502;13.426;2023-01-30T06:08:24;100162.25;;;3.37;100.00
56928;BME280;60850;52.502;13.426;2023-01-30T06:10:52;100164.88;;;3.40;100.00
56928;BME280;60850;52.502;13.426;2023-01-30T06:13:19;100169.25;;;3.42;100.00
56928;BME280;60850;52.502;13.426;2023-01-30T06:15:46;100167.47;;;3.44;100.00
56928;BME280;60850;52.502;13.426;2023-01-30T06:18:13;100166.56;;;3.50;100.00
56928;BME280;60850;52.502;13.426;2023-01-30T06:20:40;100164.78;;;3.55;100.00
56928;BME280;60850;52.502;13.426;2023-01-30T06:23:06;100165.63;;;3.58;100.00
56928;BME280;60850;52.502;13.426;2023-01-30T06:25:33;100163.84;;;3.62;100.00
56928;BME280;60850;52.502;13.426;2023-01-30T06:28:02;100154.16;;;3.64;100.00
56928;BME280;60850;52.502;13.426;2023-01-30T06:30:28;100156.78;;;3.66;100.00
56928;BME280;60850;52.502;13.426;2023-01-30T06:32:55;100162.06;;;3.67;100.00
56928;BME280;60850;52.502;13.426;2023-01-30T06:35:22;100165.50;;;3.72;100.00
56928;BME280;60850;52.502;13.426;2023-01-30T06:37:49;100174.31;;;3.71;100.00
56928;BME280;60850;52.502;13.426;2023-01-30T06:40:16;100169.03;;;3.71;100.00
56928;BME280;60850;52.502;13.426;2023-01-30T06:42:44;100166.38;;;3.76;100.00
56928;BME280;60850;52.502;13.426;2023-01-30T06:45:13;100163.72;;;3.77;100.00
56928;BME280;60850;52.502;13.426;2023-01-30T06:47:44;100166.34;;;3.77;100.00
56928;BME280;60850;52.502;13.426;2023-01-30T06:50:11;100159.25;;;3.85;100.00
56928;BME280;60850;52.502;13.426;2023-01-30T06:52:42;100162.75;;;3.88;100.00
56928;BME280;60850;52.502;13.426;2023-01-30T06:55:10;100154.81;;;3.88;100.00
56928;BME280;60850;52.502;13.426;2023-01-30T06:57:37;100154.81;;;3.91;100.00
56928;BME280;60850;52.502;13.426;2023-01-30T07:00:04;100141.59;;;3.95;100.00
56928;BME280;60850;52.502;13.426;2023-01-30T07:02:33;100135.41;;;3.99;100.00
56928;BME280;60850;52.502;13.426;2023-01-30T07:05:00;100131.84;;;4.05;100.00
56928;BME280;60850;52.502;13.426;2023-01-30T07:07:28;100126.63;;;3.97;100.00
56928;BME280;60850;52.502;13.426;2023-01-30T07:09:55;100136.22;;;4.06;100.00
56928;BME280;60850;52.502;13.426;2023-01-30T07:12:22;100133.56;;;4.07;100.00
56928;BME280;60850;52.502;13.426;2023-01-30T07:14:49;100131.78;;;4.11;100.00
56928;BME280;60850;52.502;13.426;2023-01-30T07:17:16;100143.16;;;4.16;100.00
56928;BME280;60850;52.502;13.426;2023-01-30T07:19:44;100129.03;;;4.20;100.00
56928;BME280;60850;52.502;13.426;2023-01-30T07:22:11;100127.25;;;4.22;100.00
56928;BME280;60850;52.502;13.426;2023-01-30T07:24:38;100117.50;;;4.29;100.00
56928;BME280;60850;52.502;13.426;2023-01-30T07:27:08;100114.84;;;4.29;100.00
56928;BME280;60850;52.502;13.426;2023-01-30T07:29:36;100111.28;;;4.34;100.00
56928;BME280;60850;52.502;13.426;2023-01-30T07:32:04;100109.47;;;4.39;100.00
56928;BME280;60850;52.502;13.426;2023-01-30T07:34:31;100109.41;;;4.46;100.00
56928;BME280;60850;52.502;13.426;2023-01-30T07:36:59;100109.34;;;4.52;100.00
56928;BME280;60850;52.502;13.426;2023-01-30T07:39:26;100106.56;;;4.62;100.00
56928;BME280;60850;52.502;13.426;2023-01-30T07:41:53;100105.53;;;4.74;100.00
56928;BME280;60850;52.502;13.426;2023-01-30T07:44:20;100106.31;;;4.82;100.00
56928;BME280;60850;52.502;13.426;2023-01-30T07:46:46;100108.81;;;4.91;100.00
56928;BME280;60850;52.502;13.426;2023-01-30T07:49:13;100107.00;;;4.96;100.00
56928;BME280;60850;52.502;13.426;2023-01-30T07:51:40;100117.41;;;5.06;100.00
56928;BME280;60850;52.502;13.426;2023-01-30T07:54:08;100124.34;;;5.14;100.00
56928;BME280;60850;52.502;13.426;2023-01-30T07:56:35;100126.03;;;5.18;100.00
56928;BME280;60850;52.502;13.426;2023-01-30T07:59:02;100117.31;;;5.15;100.00
56928;BME280;60850;52.502;13.426;2023-01-30T08:01:30;100124.34;;;5.16;100.00
56928;BME280;60850;52.502;13.426;2023-01-30T08:03:57;100136.53;;;5.24;100.00
56928;BME280;60850;52.502;13.426;2023-01-30T08:06:24;100132.06;;;5.28;100.00
56928;BME280;60850;52.502;13.426;2023-01-30T08:08:51;100144.41;;;5.29;100.00
56928;BME280;60850;52.502;13.426;2023-01-30T08:11:19;100124.03;;;5.34;100.00
56928;BME280;60850;52.502;13.426;2023-01-30T08:13:46;100128.44;;;5.37;100.00
56928;BME280;60850;52.502;13.426;2023-01-30T08:16:13;100124.81;;;5.41;100.00
56928;BME280;60850;52.502;13.426;2023-01-30T08:18:39;100136.28;;;5.41;100.00
56928;BME280;60850;52.502;13.426;2023-01-30T08:21:06;100127.34;;;5.48;100.00
56928;BME280;60850;52.502;13.426;2023-01-30T08:23:33;100120.31;;;5.47;100.00
56928;BME280;60850;52.502;13.426;2023-01-30T08:26:02;100121.16;;;5.49;100.00
56928;BME280;60850;52.502;13.426;2023-01-30T08:28:31;100123.59;;;5.63;100.00
56928;BME280;60850;52.502;13.426;2023-01-30T08:30:58;100112.91;;;5.71;100.00
56928;BME280;60850;52.502;13.426;2023-01-30T08:33:25;100104.84;;;5.78;100.00
56928;BME280;60850;52.502;13.426;2023-01-30T08:35:52;100093.16;;;5.93;100.00
56928;BME280;60850;52.502;13.426;2023-01-30T08:38:18;100095.69;;;5.98;100.00
56928;BME280;60850;52.502;13.426;2023-01-30T08:40:46;100102.88;;;5.91;100.00
56928;BME280;60850;52.502;13.426;2023-01-30T08:43:12;100117.94;;;5.85;100.00
56928;BME280;60850;52.502;13.426;2023-01-30T08:45:41;100115.41;;;5.77;100.00
56928;BME280;60850;52.502;13.426;2023-01-30T08:48:08;100118.13;;;5.74;100.00
56928;BME280;60850;52.502;13.426;2023-01-30T08:50:35;100120.78;;;5.74;100.00
56928;BME280;60850;52.502;13.426;2023-01-30T08:53:03;100115.41;;;5.78;100.00
56928;BME280;60850;52.502;13.426;2023-01-30T08:55:31;100116.22;;;5.82;100.00
56928;BME280;60850;52.502;13.426;2023-01-30T08:57:58;100119.69;;;5.87;100.00
56928;BME280;60850;52.502;13.426;2023-01-30T09:00:25;100110.84;;;5.88;100.00
56928;BME280;60850;52.502;13.426;2023-01-30T09:02:54;100111.53;;;6.01;100.00
56928;BME280;60850;52.502;13.426;2023-01-30T09:05:22;100117.47;;;6.14;100.00
56928;BME280;60850;52.502;13.426;2023-01-30T09:07:49;100103.91;;;6.30;100.00
56928;BME280;60850;52.502;13.426;2023-01-30T09:10:16;100108.81;;;6.50;100.00
56928;BME280;60850;52.502;13.426;2023-01-30T09:12:43;100112.72;;;6.74;100.00
56928;BME280;60850;52.502;13.426;2023-01-30T09:15:11;100105.50;;;6.82;100.00
56928;BME280;60850;52.502;13.426;2023-01-30T09:17:37;100116.13;;;6.81;100.00
56928;BME280;60850;52.502;13.426;2023-01-30T09:20:09;100123.59;;;6.60;100.00
56928;BME280;60850;52.502;13.426;2023-01-30T09:22:36;100118.63;;;6.45;100.00
56928;BME280;60850;52.502;13.426;2023-01-30T09:25:04;100118.69;;;6.41;100.00
56928;BME280;60850;52.502;13.426;2023-01-30T09:27:31;100116.88;;;6.44;100.00
56928;BME280;60850;52.502;13.426;2023-01-30T09:29:58;100115.97;;;6.45;100.00
56928;BME280;60850;52.502;13.426;2023-01-30T09:32:25;100122.19;;;6.44;100.00
56928;BME280;60850;52.502;13.426;2023-01-30T09:34:52;100122.38;;;6.35;100.00
56928;BME280;60850;52.502;13.426;2023-01-30T09:37:20;100122.19;;;6.44;100.00
56928;BME280;60850;52.502;13.426;2023-01-30T09:39:47;100121.19;;;6.50;100.00
56928;BME280;60850;52.502;13.426;2023-01-30T09:42:30;100130.84;;;6.52;100.00
56928;BME280;60850;52.502;13.426;2023-01-30T09:45:15;100125.44;;;6.58;100.00
56928;BME280;60850;52.502;13.426;2023-01-30T09:47:55;100118.38;;;6.57;100.00
56928;BME280;60850;52.502;13.426;2023-01-30T09:50:29;100116.38;;;6.69;100.00
56928;BME280;60850;52.502;13.426;2023-01-30T09:53:05;100113.50;;;6.79;100.00
56928;BME280;60850;52.502;13.426;2023-01-30T09:55:39;100118.28;;;7.04;100.00
56928;BME280;60850;52.502;13.426;2023-01-30T09:58:14;100117.44;;;7.02;100.00
56928;BME280;60850;52.502;13.426;2023-01-30T10:00:42;100116.28;;;7.15;100.00
56928;BME280;60850;52.502;13.426;2023-01-30T10:03:10;100123.13;;;7.24;100.00
56928;BME280;60850;52.502;13.426;2023-01-30T10:05:42;100116.91;;;7.26;100.00
56928;BME280;60850;52.502;13.426;2023-01-30T10:11:33;100112.06;;;7.06;100.00
56928;BME280;60850;52.502;13.426;2023-01-30T10:14:21;100104.75;;;7.16;100.00
56928;BME280;60850;52.502;13.426;2023-01-30T10:16:59;100109.56;;;7.37;100.00
56928;BME280;60850;52.502;13.426;2023-01-30T10:19:42;100096.69;;;7.58;100.00
56928;BME280;60850;52.502;13.426;2023-01-30T10:22:22;100099.63;;;7.83;100.00
56928;BME280;60850;52.502;13.426;2023-01-30T10:25:00;100098.03;;;8.08;100.00
56928;BME280;60850;52.502;13.426;2023-01-30T10:27:31;100101.53;;;8.10;100.00
56928;BME280;60850;52.502;13.426;2023-01-30T10:30:01;100109.09;;;8.25;100.00
56928;BME280;60850;52.502;13.426;2023-01-30T10:32:31;100111.31;;;8.42;100.00
56928;BME280;60850;52.502;13.426;2023-01-30T10:35:04;100102.09;;;8.56;100.00
56928;BME280;60850;52.502;13.426;2023-01-30T10:37:32;100102.38;;;8.46;100.00
56928;BME280;60850;52.502;13.426;2023-01-30T10:40:04;100106.25;;;8.64;100.00
56928;BME280;60850;52.502;13.426;2023-01-30T10:42:40;100088.06;;;8.50;100.00
56928;BME280;60850;52.502;13.426;2023-01-30T10:45:11;100087.53;;;8.38;100.00
56928;BME280;60850;52.502;13.426;2023-01-30T10:47:48;100082.94;;;8.10;100.00
56928;BME280;60850;52.502;13.426;2023-01-30T10:50:18;100082.31;;;8.01;100.00
56928;BME280;60850;52.502;13.426;2023-01-30T10:52:53;100089.22;;;8.08;100.00
56928;BME280;60850;52.502;13.426;2023-01-30T10:55:29;100074.81;;;7.84;100.00
56928;BME280;60850;52.502;13.426;2023-01-30T10:58:04;100068.13;;;7.69;100.00
56928;BME280;60850;52.502;13.426;2023-01-30T11:00:37;100087.66;;;7.65;100.00
56928;BME280;60850;52.502;13.426;2023-01-30T11:03:23;100087.91;;;7.56;100.00
56928;BME280;60850;52.502;13.426;2023-01-30T11:05:53;100078.41;;;7.47;100.00
56928;BME280;60850;52.502;13.426;2023-01-30T11:08:24;100077.16;;;7.60;100.00
56928;BME280;60850;52.502;13.426;2023-01-30T11:10:53;100072.72;;;7.62;100.00
56928;BME280;60850;52.502;13.426;2023-01-30T11:13:23;100070.13;;;7.59;100.00
56928;BME280;60850;52.502;13.426;2023-01-30T11:15:54;100053.22;;;7.63;100.00
56928;BME280;60850;52.502;13.426;2023-01-30T11:18:22;100064.81;;;7.59;100.00
56928;BME280;60850;52.502;13.426;2023-01-30T11:20:59;100056.03;;;7.57;100.00
56928;BME280;60850;52.502;13.426;2023-01-30T11:23:31;100045.53;;;7.54;100.00
56928;BME280;60850;52.502;13.426;2023-01-30T11:26:01;100037.16;;;7.69;100.00
56928;BME280;60850;52.502;13.426;2023-01-30T11:28:34;100029.44;;;7.93;100.00
56928;BME280;60850;52.502;13.426;2023-01-30T11:31:01;100021.16;;;8.05;100.00
56928;BME280;60850;52.502;13.426;2023-01-30T11:33:31;100007.78;;;8.08;100.00
56928;BME280;60850;52.502;13.426;2023-01-30T11:36:01;100007.94;;;8.04;100.00
56928;BME280;60850;52.502;13.426;2023-01-30T11:38:30;100011.53;;;8.01;100.00
56928;BME280;60850;52.502;13.426;2023-01-30T11:41:01;100004.66;;;7.94;100.00
56928;BME280;60850;52.502;13.426;2023-01-30T11:43:31;99994.41;;;7.80;100.00
56928;BME280;60850;52.502;13.426;2023-01-30T11:45:59;100002.81;;;7.63;100.00
56928;BME280;60850;52.502;13.426;2023-01-30T11:48:29;100012.72;;;7.57;100.00
56928;BME280;60850;52.502;13.426;2023-01-30T11:50:59;100007.31;;;7.60;100.00
56928;BME280;60850;52.502;13.426;2023-01-30T11:53:32;99998.13;;;7.39;100.00
56928;BME280;60850;52.502;13.426;2023-01-30T11:56:04;99998.47;;;7.27;100.00
56928;BME280;60850;52.502;13.426;2023-01-30T11:58:37;100000.41;;;7.20;100.00
56928;BME280;60850;52.502;13.426;2023-01-30T12:01:07;100006.69;;;7.16;100.00
56928;BME280;60850;52.502;13.426;2023-01-30T12:03:42;100015.78;;;7.06;100.00
56928;BME280;60850;52.502;13.426;2023-01-30T12:06:10;100009.94;;;6.90;100.00
56928;BME280;60850;52.502;13.426;2023-01-30T12:08:40;100001.50;;;6.73;100.00
56928;BME280;60850;52.502;13.426;2023-01-30T12:11:30;100024.22;;;6.44;100.00
56928;BME280;60850;52.502;13.426;2023-01-30T12:14:12;100032.47;;;6.29;100.00
56928;BME280;60850;52.502;13.426;2023-01-30T12:16:48;99997.25;;;6.25;100.00
56928;BME280;60850;52.502;13.426;2023-01-30T12:19:27;99996.25;;;6.31;100.00
56928;BME280;60850;52.502;13.426;2023-01-30T12:22:00;99998.81;;;6.34;100.00
56928;BME280;60850;52.502;13.426;2023-01-30T12:24:36;99983.84;;;6.35;100.00
56928;BME280;60850;52.502;13.426;2023-01-30T12:27:11;99989.75;;;6.46;100.00
56928;BME280;60850;52.502;13.426;2023-01-30T12:29:52;99985.91;;;6.60;100.00
56928;BME280;60850;52.502;13.426;2023-01-30T12:32:25;99981.25;;;6.72;100.00
56928;BME280;60850;52.502;13.426;2023-01-30T12:34:52;99973.16;;;6.76;100.00
56928;BME280;60850;52.502;13.426;2023-01-30T12:37:32;99972.88;;;6.88;100.00
56928;BME280;60850;52.502;13.426;2023-01-30T12:40:09;99955.88;;;6.99;100.00
56928;BME280;60850;52.502;13.426;2023-01-30T12:42:55;99954.47;;;7.20;100.00
56928;BME280;60850;52.502;13.426;2023-01-30T12:45:28;99952.13;;;7.41;100.00
56928;BME280;60850;52.502;13.426;2023-01-30T12:48:20;99943.56;;;7.64;100.00
56928;BME280;60850;52.502;13.426;2023-01-30T12:51:03;99947.44;;;7.84;100.00
56928;BME280;60850;52.502;13.426;2023-01-30T12:53:45;99944.75;;;7.85;100.00
56928;BME280;60850;52.502;13.426;2023-01-30T12:56:27;99945.50;;;7.89;100.00
56928;BME280;60850;52.502;13.426;2023-01-30T12:59:06;99937.34;;;7.96;100.00
56928;BME280;60850;52.502;13.426;2023-01-30T13:01:43;99949.50;;;8.05;100.00
56928;BME280;60850;52.502;13.426;2023-01-30T13:04:19;99939.91;;;7.99;100.00
56928;BME280;60850;52.502;13.426;2023-01-30T13:07:01;99946.25;;;7.94;100.00